Details From EDHI - Hamburg Finkenwerder
To EDAH - Heringsdorf
Flight Number -
Tags generated
Created
Modified
Stats Distance 155 nm / 286 km
Max Altitude 13,800 ft / 4,206 m
Waypoints 3
Social Downloads 0
Likes 0
Share VATSIM

Download

Looking for another format? Having issues loading an existing format? Contact us
Advertisement - Login to hide

Notes

Basic altitude profile: - Ascent Rate: 2500ft/min - Ascent Speed: 250kts - Cruise Altitude: 35000ft - Cruise Speed: 420kts - Descent Rate: 1500ft/min - Descent Speed: 250kts Options: - Use NATs: yes - Use PACOTS: yes - Use low airways: yes - Use high airways: yes

Route

EDHI NUVEN EDAH

ID Type Via Altitude Latitude Longitude Leg Dist Tot Dist Heading (true) Name
O EDHI APT - 0 ft / 0 m 53.53591˚ 9.83707˚ - 0 nm - Hamburg Finkenwerder
NUVEN FIX - 13,800 ft / 4,206 m 53.74361˚ 12.20833˚ 85 nm 85 nm 81° / 83° -
O EDAH APT - 0 ft / 0 m 53.87899˚ 14.14851˚ 69 nm 154 nm 82° / 84° Heringsdorf

Altitude Profile

Advertisement - Login to hide

EDHI

Details ICAO EDHI (XFW)
Name Hamburg Finkenwerder
Region Germany - Civil
Timezone Europe/Berlin (UTC+1.0)
Stats Elevation 21 ft / 6 m (AMSL)
Location 53.535910° 9.837071°
Runways 1
Magnetic Variation 2.738° E

METAR

EDHI 161420Z 27007KT 9999 FEW015 SCT029 04/02 Q1006

Decode

TAF

Not found

Departure Runways

ID Width Length Bearing (true) Bearing (mag) Surface Threshold Offset Overrun Length
05 148 ft / 45 m 8,628 ft / 2,630 m 51.57° 48.83° Asphalt 341 ft / 104 m 341 ft / 104 m
23 148 ft / 45 m 8,628 ft / 2,630 m 231.59° 228.85° Asphalt 2,474 ft / 754 m 328 ft / 100 m

EDAH

Details ICAO EDAH (HDF)
Name Heringsdorf
Region Germany - Civil
Timezone Europe/Berlin (UTC+1.0)
Stats Elevation 93 ft / 28 m (AMSL)
Location 53.878985° 14.148508°
Runways 2
Magnetic Variation 4.095° E

METAR

EDAH 161420Z 27009KT 250V330 9000 -RA BKN021 03/01 Q1004

Decode

TAF

Not found

Destination Runways

ID Width Length Bearing (true) Bearing (mag) Surface Threshold Offset Overrun Length
10 115 ft / 35 m 7,541 ft / 2,299 m 105.53° 101.44° Asphalt 0 ft / 0 m 0 ft / 0 m
10R 98 ft / 30 m 1,970 ft / 601 m 105.67° 101.58° Grass 0 ft / 0 m 0 ft / 0 m
28 115 ft / 35 m 7,541 ft / 2,299 m 285.56° 281.47° Asphalt 0 ft / 0 m 0 ft / 0 m
28L 98 ft / 30 m 1,970 ft / 601 m 285.68° 281.59° Grass 0 ft / 0 m 0 ft / 0 m

Approach Navaids

Runway Type Ident Frequency Range Bearing (true) Bearing (mag) Slope Elevation
28 Localiser IHEW 111.30 MHz 18 nm / 33 km 285.54° 281.45° - 92 ft / 28 m (AMSL)
28 Glidescope IEHW 111.30 MHz 10 nm / 19 km 285.54° 281.45° 3.00° 92 ft / 28 m (AMSL)
28 DME IHEW 111.30 MHz 25 nm / 46 km - - - 92 ft / 28 m (AMSL)

Popular Alternatives